createdAt,value
2023-04-29T00:01:20.959Z,32.73
2023-04-29T00:03:48.073Z,31.43
2023-04-29T00:06:15.451Z,34.17
2023-04-29T00:08:42.407Z,32.90
2023-04-29T00:11:09.124Z,34.47
2023-04-29T00:13:35.892Z,32.13
2023-04-29T00:16:05.602Z,33.10
2023-04-29T00:18:32.381Z,34.27
2023-04-29T00:20:59.297Z,34.83
2023-04-29T00:23:26.110Z,35.33
2023-04-29T00:25:53.567Z,33.13
2023-04-29T00:28:20.740Z,34.30
2023-04-29T00:30:47.453Z,35.80
2023-04-29T00:33:14.218Z,33.77
2023-04-29T00:35:41.064Z,33.03
2023-04-29T00:38:07.965Z,34.93
2023-04-29T00:40:35.838Z,33.77
2023-04-29T00:43:02.534Z,33.30
2023-04-29T00:45:29.244Z,32.83
2023-04-29T00:47:56.137Z,34.77
2023-04-29T00:50:22.972Z,35.40
2023-04-29T00:52:49.690Z,35.50
2023-04-29T00:55:16.914Z,37.37
2023-04-29T00:57:43.728Z,35.20
2023-04-29T01:00:10.893Z,34.80
2023-04-29T01:02:38.582Z,36.67
2023-04-29T01:05:05.509Z,36.30
2023-04-29T01:07:40.589Z,38.73
2023-04-29T01:10:14.815Z,36.00
2023-04-29T01:13:30.312Z,35.13
2023-04-29T01:16:08.760Z,36.70
2023-04-29T01:18:55.614Z,39.33
2023-04-29T01:21:22.878Z,36.67
2023-04-29T01:23:55.904Z,38.27
2023-04-29T01:26:23.893Z,38.80
2023-04-29T01:29:15.794Z,37.23
2023-04-29T01:31:49.356Z,38.57
2023-04-29T01:34:31.701Z,38.37
2023-04-29T01:37:30.448Z,40.07
2023-04-29T01:40:43.119Z,41.70
2023-04-29T01:43:12.664Z,38.00
2023-04-29T01:45:44.052Z,36.33
2023-04-29T01:48:11.447Z,38.27
2023-04-29T01:50:38.150Z,39.57
2023-04-29T01:53:04.975Z,38.37
2023-04-29T01:55:31.714Z,36.00
2023-04-29T01:57:58.442Z,38.23
2023-04-29T02:00:25.341Z,35.47
2023-04-29T02:02:52.068Z,36.93
2023-04-29T02:05:18.872Z,37.40
2023-04-29T02:07:45.679Z,37.20
2023-04-29T02:10:12.447Z,38.10
2023-04-29T02:12:39.444Z,36.40
2023-04-29T02:15:06.814Z,33.93
2023-04-29T02:17:34.564Z,33.80
2023-04-29T02:20:01.421Z,33.60
2023-04-29T02:22:28.217Z,32.00
2023-04-29T02:24:54.986Z,29.53
2023-04-29T02:27:22.890Z,30.80
2023-04-29T02:29:50.566Z,30.93
2023-04-29T02:32:20.042Z,31.07
2023-04-29T02:34:47.347Z,33.37
2023-04-29T02:37:14.197Z,30.30
2023-04-29T02:39:41.343Z,30.27
2023-04-29T02:42:08.162Z,31.90
2023-04-29T02:44:35.589Z,31.90
2023-04-29T02:47:02.332Z,30.53
2023-04-29T02:49:29.520Z,31.43
2023-04-29T02:51:56.439Z,30.07
2023-04-29T02:54:23.172Z,28.27
2023-04-29T02:56:49.938Z,29.90
2023-04-29T02:59:16.740Z,30.63
2023-04-29T03:01:43.681Z,29.70
2023-04-29T03:04:10.857Z,31.40
2023-04-29T03:06:38.262Z,31.43
2023-04-29T03:09:05.089Z,31.50
2023-04-29T03:11:31.778Z,30.83
2023-04-29T03:13:58.591Z,31.27
2023-04-29T03:16:25.607Z,33.00
2023-04-29T03:18:52.938Z,31.70
2023-04-29T03:21:19.805Z,34.50
2023-04-29T03:23:46.529Z,32.47
2023-04-29T03:26:13.263Z,32.00
2023-04-29T03:28:39.958Z,30.67
2023-04-29T03:31:06.815Z,30.83
2023-04-29T03:33:33.906Z,33.40
2023-04-29T03:36:00.740Z,35.23
2023-04-29T03:38:27.566Z,31.00
2023-04-29T03:40:54.260Z,29.33
2023-04-29T03:43:21.069Z,32.00
2023-04-29T03:45:47.901Z,31.60
2023-04-29T03:48:14.790Z,31.90
2023-04-29T03:50:41.741Z,33.53
2023-04-29T03:53:08.495Z,32.90
2023-04-29T03:55:35.308Z,31.70
2023-04-29T03:58:02.139Z,33.87
2023-04-29T04:00:31.287Z,32.43
2023-04-29T04:02:59.061Z,33.27
2023-04-29T04:05:26.383Z,30.83
2023-04-29T04:07:53.420Z,33.07
2023-04-29T04:10:20.741Z,33.20
2023-04-29T04:12:47.615Z,36.00
2023-04-29T04:15:15.493Z,34.70
2023-04-29T04:17:42.369Z,34.77
2023-04-29T04:20:09.563Z,34.97
2023-04-29T04:22:36.354Z,35.50
2023-04-29T04:25:03.226Z,33.57
2023-04-29T04:27:30.170Z,34.53
2023-04-29T04:29:56.941Z,30.50
2023-04-29T04:32:23.840Z,35.80
2023-04-29T04:34:51.001Z,37.07
2023-04-29T04:37:18.125Z,35.43
2023-04-29T04:39:44.946Z,34.57
2023-04-29T04:42:11.671Z,37.17
2023-04-29T04:44:38.607Z,37.20
2023-04-29T04:47:06.262Z,37.20
2023-04-29T04:49:33.102Z,39.13
2023-04-29T04:51:59.890Z,37.63
2023-04-29T04:54:26.827Z,38.87
2023-04-29T04:56:53.626Z,38.23
2023-04-29T04:59:21.026Z,38.00
2023-04-29T05:01:47.836Z,34.27
2023-04-29T05:04:15.620Z,36.07
2023-04-29T05:06:42.463Z,35.80
2023-04-29T05:09:09.223Z,38.83
2023-04-29T05:11:35.934Z,37.90
2023-04-29T05:14:02.627Z,37.63
2023-04-29T05:16:29.760Z,38.37
2023-04-29T05:18:56.558Z,38.07
2023-04-29T05:21:23.270Z,39.43
2023-04-29T05:23:50.096Z,38.60
2023-04-29T05:26:16.882Z,38.70
2023-04-29T05:28:44.016Z,37.90
2023-04-29T05:31:11.385Z,41.40
2023-04-29T05:33:38.492Z,41.90
2023-04-29T05:36:06.656Z,41.27
2023-04-29T05:38:33.617Z,38.57
2023-04-29T05:41:00.391Z,40.57
2023-04-29T05:43:27.750Z,41.40
2023-04-29T05:45:54.569Z,41.37
2023-04-29T05:48:21.337Z,40.93
2023-04-29T05:50:48.583Z,41.67
2023-04-29T05:53:15.434Z,41.80
2023-04-29T05:55:44.974Z,47.17
2023-04-29T05:58:12.806Z,42.10
2023-04-29T06:00:39.545Z,41.83
2023-04-29T06:03:06.406Z,41.23
2023-04-29T06:05:34.516Z,42.40
2023-04-29T06:08:02.261Z,40.57
2023-04-29T06:10:29.064Z,40.67
2023-04-29T06:12:56.069Z,41.80
2023-04-29T06:15:22.950Z,41.17
2023-04-29T06:17:49.779Z,40.73
2023-04-29T06:20:18.146Z,42.50
2023-04-29T06:22:45.218Z,42.37
2023-04-29T06:25:11.959Z,43.23
2023-04-29T06:27:38.706Z,43.43
2023-04-29T06:30:06.108Z,40.67
2023-04-29T06:32:32.845Z,42.23
2023-04-29T06:34:59.603Z,43.10
2023-04-29T06:37:26.689Z,42.80
2023-04-29T06:39:53.854Z,43.87
2023-04-29T06:42:21.463Z,41.80
2023-04-29T06:44:48.211Z,40.80
2023-04-29T06:47:15.263Z,40.57
2023-04-29T06:49:43.746Z,42.73
2023-04-29T06:52:10.497Z,40.50
2023-04-29T06:54:38.263Z,38.63
2023-04-29T06:57:04.999Z,37.87
2023-04-29T06:59:32.914Z,35.63
2023-04-29T07:01:59.735Z,39.07
2023-04-29T07:04:26.451Z,36.10
2023-04-29T07:06:53.942Z,36.67
2023-04-29T07:09:20.755Z,36.30
2023-04-29T07:11:47.550Z,39.07
2023-04-29T07:14:14.326Z,40.30
2023-04-29T07:16:41.211Z,38.07
2023-04-29T07:19:08.264Z,38.50
2023-04-29T07:21:36.035Z,38.87
2023-04-29T07:24:05.039Z,37.90
2023-04-29T07:26:32.015Z,38.40
2023-04-29T07:28:58.958Z,36.33
2023-04-29T07:31:25.803Z,37.23
2023-04-29T07:33:53.036Z,36.97
2023-04-29T07:36:19.730Z,40.57
2023-04-29T07:38:48.652Z,38.50
2023-04-29T07:41:15.521Z,36.93
2023-04-29T07:43:42.685Z,39.67
2023-04-29T07:46:09.481Z,38.17
2023-04-29T07:48:38.351Z,37.97
2023-04-29T07:51:06.068Z,36.87
2023-04-29T07:53:32.955Z,36.10
2023-04-29T07:55:59.640Z,37.57
2023-04-29T07:58:28.644Z,37.67
2023-04-29T08:00:55.458Z,36.37
2023-04-29T08:03:22.321Z,38.47
2023-04-29T08:05:51.328Z,37.73
2023-04-29T08:08:18.175Z,38.17
2023-04-29T08:10:44.972Z,37.60
2023-04-29T08:13:11.741Z,37.60
2023-04-29T08:15:38.501Z,37.50
2023-04-29T08:18:05.638Z,35.47
2023-04-29T08:20:32.396Z,34.20
2023-04-29T08:23:00.658Z,32.77
2023-04-29T08:25:27.650Z,30.73
2023-04-29T08:27:54.431Z,32.17
2023-04-29T08:30:21.741Z,31.67
2023-04-29T08:32:48.881Z,29.60
2023-04-29T08:35:15.740Z,31.20
2023-04-29T08:37:42.570Z,32.00
2023-04-29T08:40:09.860Z,27.77
2023-04-29T08:42:37.591Z,26.60
2023-04-29T08:45:05.589Z,26.17
2023-04-29T08:47:33.958Z,26.20
2023-04-29T08:50:05.358Z,25.67
2023-04-29T08:52:32.842Z,23.80
2023-04-29T08:55:02.396Z,24.23
2023-04-29T08:57:31.222Z,25.20
2023-04-29T09:00:01.212Z,24.00
2023-04-29T09:02:29.115Z,26.13
2023-04-29T09:05:04.794Z,26.20
2023-04-29T09:07:32.278Z,26.07
2023-04-29T09:09:59.637Z,25.30
2023-04-29T09:12:26.853Z,25.33
2023-04-29T09:14:53.982Z,25.73
2023-04-29T09:17:48.310Z,25.63
2023-04-29T09:20:21.230Z,26.97
2023-04-29T09:22:52.953Z,26.23
2023-04-29T09:25:20.785Z,25.73
2023-04-29T09:27:47.730Z,23.00
2023-04-29T09:30:16.602Z,24.73
2023-04-29T09:32:45.174Z,21.63
2023-04-29T09:35:25.759Z,22.53
2023-04-29T09:37:56.100Z,24.93
2023-04-29T09:40:43.479Z,25.10
2023-04-29T09:43:21.548Z,24.23
2023-04-29T09:45:48.958Z,23.90
2023-04-29T09:48:16.459Z,23.87
2023-04-29T09:50:45.090Z,22.87
2023-04-29T09:53:12.093Z,23.77
2023-04-29T09:56:00.260Z,24.87
2023-04-29T09:58:36.988Z,25.30
2023-04-29T10:01:05.362Z,23.73
2023-04-29T10:03:34.632Z,24.90
2023-04-29T10:06:03.375Z,26.00
2023-04-29T10:08:31.019Z,24.73
2023-04-29T10:11:05.898Z,23.70
2023-04-29T10:13:35.529Z,23.27
2023-04-29T10:16:19.230Z,23.53
2023-04-29T10:18:53.843Z,23.97
2023-04-29T10:21:27.251Z,24.30
2023-04-29T10:23:56.678Z,25.33
2023-04-29T10:26:28.590Z,21.47
2023-04-29T10:28:57.022Z,21.30
2023-04-29T10:31:27.588Z,20.40
2023-04-29T10:33:58.027Z,20.00
2023-04-29T10:36:31.433Z,19.63
2023-04-29T10:39:04.322Z,19.27
2023-04-29T10:41:37.263Z,17.77
2023-04-29T10:44:04.704Z,19.20
2023-04-29T10:46:31.648Z,19.13
2023-04-29T10:49:03.253Z,19.37
2023-04-29T10:51:49.378Z,18.63
2023-04-29T10:54:17.924Z,19.13
2023-04-29T10:56:49.263Z,18.00
2023-04-29T10:59:20.599Z,19.10
2023-04-29T11:01:48.608Z,19.03
2023-04-29T11:04:16.553Z,18.40
2023-04-29T11:06:58.062Z,18.17
2023-04-29T11:09:24.725Z,17.77
2023-04-29T11:12:04.087Z,18.63
2023-04-29T11:14:41.166Z,18.87
2023-04-29T11:17:17.466Z,18.23
2023-04-29T11:19:50.008Z,20.17
2023-04-29T11:22:21.432Z,18.10
2023-04-29T11:25:09.012Z,18.47
2023-04-29T11:27:42.444Z,17.73
2023-04-29T11:30:09.806Z,18.50
2023-04-29T11:32:37.881Z,18.13
2023-04-29T11:35:16.086Z,16.73
2023-04-29T11:37:45.323Z,18.27
2023-04-29T11:40:13.563Z,17.00
2023-04-29T11:42:48.423Z,16.93
2023-04-29T11:45:18.224Z,17.40
2023-04-29T11:47:46.641Z,16.60
2023-04-29T11:50:16.930Z,15.87
2023-04-29T11:52:44.829Z,15.20
2023-04-29T11:55:12.520Z,17.30
2023-04-29T11:57:40.227Z,16.33
2023-04-29T12:00:14.755Z,17.50
2023-04-29T12:02:46.252Z,15.93
2023-04-29T12:05:14.066Z,17.83
2023-04-29T12:07:41.170Z,18.30
2023-04-29T12:10:10.839Z,16.73
2023-04-29T12:12:40.713Z,17.40
2023-04-29T12:15:10.196Z,16.90
2023-04-29T12:17:37.877Z,15.50
2023-04-29T12:20:06.027Z,16.67
2023-04-29T12:22:33.360Z,14.20
2023-04-29T12:25:00.266Z,15.30
2023-04-29T12:27:27.103Z,14.97
2023-04-29T12:29:54.032Z,15.80
2023-04-29T12:32:25.198Z,14.80
2023-04-29T12:34:53.259Z,14.57
2023-04-29T12:37:22.536Z,14.47
2023-04-29T12:39:50.807Z,15.20
2023-04-29T12:42:17.991Z,15.90
2023-04-29T12:44:48.825Z,15.40
2023-04-29T12:47:16.942Z,15.60
2023-04-29T12:49:45.700Z,14.87
2023-04-29T12:52:12.820Z,12.40
2023-04-29T12:54:44.189Z,12.43
2023-04-29T12:57:12.462Z,12.30
2023-04-29T12:59:41.293Z,13.03
2023-04-29T13:02:08.439Z,13.70
2023-04-29T13:04:35.492Z,13.20
2023-04-29T13:07:04.349Z,12.90
2023-04-29T13:09:31.418Z,13.70
2023-04-29T13:11:59.594Z,12.60
2023-04-29T13:14:26.939Z,12.17
2023-04-29T13:16:53.977Z,13.27
2023-04-29T13:19:30.462Z,12.83
2023-04-29T13:22:06.762Z,11.20
2023-04-29T13:24:35.860Z,10.30
2023-04-29T13:27:05.920Z,9.03
2023-04-29T13:29:32.708Z,9.03
2023-04-29T13:31:59.611Z,9.80
2023-04-29T13:34:26.484Z,10.40
2023-04-29T13:36:53.224Z,9.93
2023-04-29T13:39:22.934Z,9.70
2023-04-29T13:41:49.988Z,9.67
2023-04-29T13:44:27.085Z,10.83
2023-04-29T13:47:01.542Z,11.33
2023-04-29T13:50:20.097Z,11.17
2023-04-29T13:53:07.322Z,10.73
2023-04-29T14:00:19.296Z,10.53
2023-04-29T14:05:20.761Z,9.27
2023-04-29T14:07:47.842Z,9.33
2023-04-29T14:10:14.544Z,9.20
2023-04-29T14:12:41.313Z,9.33
2023-04-29T14:15:08.383Z,8.87
2023-04-29T14:17:36.412Z,8.50
2023-04-29T14:20:04.144Z,8.23
2023-04-29T14:22:30.986Z,8.23
2023-04-29T14:24:57.730Z,7.73
2023-04-29T14:27:24.704Z,9.30
2023-04-29T14:29:51.418Z,7.40
2023-04-29T14:32:18.200Z,7.17
2023-04-29T14:34:45.037Z,7.40
2023-04-29T14:37:11.910Z,7.80
2023-04-29T14:39:38.750Z,8.30
2023-04-29T14:42:06.235Z,8.53
2023-04-29T14:44:33.358Z,8.10
2023-04-29T14:47:00.672Z,7.93
2023-04-29T14:49:28.646Z,7.07
2023-04-29T14:51:57.037Z,7.67
2023-04-29T14:54:24.644Z,6.60
2023-04-29T14:56:51.390Z,6.60
2023-04-29T14:59:18.142Z,6.33
2023-04-29T15:01:45.528Z,6.03
2023-04-29T15:04:14.123Z,6.23
2023-04-29T15:06:40.951Z,6.50
2023-04-29T15:09:07.983Z,7.33
2023-04-29T15:11:34.755Z,6.53
2023-04-29T15:14:01.514Z,7.00
2023-04-29T15:16:29.372Z,6.83
2023-04-29T15:18:56.577Z,6.30
2023-04-29T15:21:23.332Z,6.57
2023-04-29T15:23:50.114Z,6.80
2023-04-29T15:26:16.941Z,7.77
2023-04-29T15:28:45.632Z,7.57
2023-04-29T15:31:12.864Z,7.30
2023-04-29T15:33:39.660Z,8.00
2023-04-29T15:36:07.396Z,6.97
2023-04-29T15:38:34.141Z,7.63
2023-04-29T15:41:01.590Z,7.30
2023-04-29T15:43:29.018Z,8.37
2023-04-29T15:45:56.424Z,7.37
2023-04-29T15:48:23.327Z,7.17
2023-04-29T15:50:50.026Z,7.90
2023-04-29T15:53:16.747Z,7.67
2023-04-29T15:55:43.517Z,7.40
2023-04-29T15:58:10.283Z,8.03
2023-04-29T16:00:37.118Z,7.60
2023-04-29T16:03:04.035Z,8.20
2023-04-29T16:05:31.655Z,7.53
2023-04-29T16:07:58.443Z,7.83
2023-04-29T16:10:25.319Z,8.13
2023-04-29T16:12:52.151Z,7.40
2023-04-29T16:15:18.938Z,7.77
2023-04-29T16:17:45.897Z,7.30
2023-04-29T16:20:12.757Z,8.10
2023-04-29T16:22:39.604Z,6.90
2023-04-29T16:25:06.933Z,7.57
2023-04-29T16:27:33.804Z,7.53
2023-04-29T16:30:01.039Z,7.60
2023-04-29T16:32:29.149Z,7.43
2023-04-29T16:34:56.191Z,7.37
2023-04-29T16:37:23.079Z,7.87
2023-04-29T16:39:49.771Z,7.40
2023-04-29T16:42:17.498Z,7.00
2023-04-29T16:44:44.252Z,7.30
2023-04-29T16:47:11.799Z,6.53
2023-04-29T16:49:38.613Z,7.60
2023-04-29T16:52:05.462Z,7.13
2023-04-29T16:54:32.629Z,7.13
2023-04-29T16:56:59.391Z,7.17
2023-04-29T16:59:26.218Z,7.67
2023-04-29T17:01:54.233Z,7.70
2023-04-29T17:04:21.181Z,7.10
2023-04-29T17:06:48.520Z,7.90
2023-04-29T17:09:15.772Z,7.53
2023-04-29T17:11:42.719Z,7.60
2023-04-29T17:14:09.537Z,7.37
2023-04-29T17:16:36.307Z,7.90
2023-04-29T17:19:03.250Z,7.00
2023-04-29T17:21:32.474Z,7.83
2023-04-29T17:23:59.334Z,7.60
2023-04-29T17:26:26.598Z,7.13
2023-04-29T17:28:53.535Z,8.03
2023-04-29T17:31:25.043Z,7.80
2023-04-29T17:34:04.932Z,7.30
2023-04-29T17:36:35.011Z,7.50
2023-04-29T17:39:01.779Z,7.20
2023-04-29T17:41:28.520Z,6.70
2023-04-29T17:43:55.434Z,6.30
2023-04-29T17:46:22.203Z,6.23
2023-04-29T17:48:48.966Z,6.87
2023-04-29T17:51:15.844Z,6.97
2023-04-29T17:53:42.614Z,6.13
2023-04-29T17:56:09.453Z,7.00
2023-04-29T17:58:36.205Z,6.00
2023-04-29T18:01:06.445Z,7.37
2023-04-29T18:03:33.830Z,6.83
2023-04-29T18:06:00.726Z,6.50
2023-04-29T18:08:27.535Z,7.00
2023-04-29T18:10:54.268Z,6.33
2023-04-29T18:13:21.117Z,7.10
2023-04-29T18:15:48.770Z,6.40
2023-04-29T18:18:16.219Z,6.77
2023-04-29T18:20:43.859Z,6.67
2023-04-29T18:23:11.179Z,6.50
2023-04-29T18:25:39.493Z,5.90
2023-04-29T18:28:23.021Z,5.73
2023-04-29T18:30:51.857Z,5.97
2023-04-29T18:33:18.856Z,5.60
2023-04-29T18:35:45.785Z,5.27
2023-04-29T18:38:16.164Z,6.20
2023-04-29T18:40:43.775Z,5.80
2023-04-29T18:43:11.914Z,6.37
2023-04-29T18:45:38.898Z,6.40
2023-04-29T18:48:06.978Z,6.30
2023-04-29T18:50:34.164Z,7.23
2023-04-29T18:53:01.246Z,6.87
2023-04-29T18:55:28.204Z,7.30
2023-04-29T18:57:54.956Z,7.77
2023-04-29T19:00:21.918Z,7.70
2023-04-29T19:02:48.938Z,7.13
2023-04-29T19:05:15.963Z,7.03
2023-04-29T19:07:43.314Z,7.63
2023-04-29T19:10:10.622Z,8.20
2023-04-29T19:12:37.680Z,7.77
2023-04-29T19:15:04.951Z,7.63
2023-04-29T19:17:31.808Z,8.00
2023-04-29T19:19:58.630Z,8.10
2023-04-29T19:22:27.601Z,7.93
2023-04-29T19:24:54.433Z,7.83
2023-04-29T19:27:21.320Z,9.40
2023-04-29T19:29:48.140Z,7.93
2023-04-29T19:32:15.144Z,8.17
2023-04-29T19:34:41.964Z,8.17
2023-04-29T19:37:09.047Z,9.13
2023-04-29T19:39:35.865Z,10.70
2023-04-29T19:42:04.110Z,11.20
2023-04-29T19:44:31.024Z,11.43
2023-04-29T19:46:58.124Z,9.00
2023-04-29T19:49:25.138Z,8.37
2023-04-29T19:51:52.006Z,7.47
2023-04-29T19:54:19.125Z,7.40
2023-04-29T19:56:46.029Z,7.20
2023-04-29T19:59:13.348Z,7.70
2023-04-29T20:01:40.185Z,9.80
2023-04-29T20:04:06.937Z,12.63
2023-04-29T20:06:35.125Z,14.37
2023-04-29T20:09:02.049Z,20.47
2023-04-29T20:11:28.883Z,17.40
2023-04-29T20:13:55.999Z,8.20
2023-04-29T20:16:23.753Z,10.97
2023-04-29T20:18:51.027Z,6.80
2023-04-29T20:21:17.816Z,7.60
2023-04-29T20:23:44.564Z,8.23
2023-04-29T20:26:11.393Z,7.57
2023-04-29T20:28:38.705Z,7.73
2023-04-29T20:31:05.571Z,7.57
2023-04-29T20:33:32.407Z,7.00
2023-04-29T20:36:05.434Z,6.83
2023-04-29T20:38:36.157Z,8.77
2023-04-29T20:41:03.741Z,9.87
2023-04-29T20:43:30.490Z,8.60
2023-04-29T20:45:58.483Z,7.70
2023-04-29T20:48:25.397Z,7.37
2023-04-29T20:50:52.182Z,6.90
2023-04-29T20:53:18.961Z,7.40
2023-04-29T20:55:46.158Z,6.77
2023-04-29T20:58:12.960Z,7.73
2023-04-29T21:00:40.699Z,6.90
2023-04-29T21:03:07.764Z,6.90
2023-04-29T21:05:34.543Z,9.70
2023-04-29T21:08:01.707Z,9.70
2023-04-29T21:10:28.436Z,9.53
2023-04-29T21:12:55.240Z,6.63
2023-04-29T21:15:22.130Z,7.53
2023-04-29T21:17:48.948Z,6.20
2023-04-29T21:20:17.177Z,6.57
2023-04-29T21:22:45.049Z,6.80
2023-04-29T21:25:11.877Z,6.00
2023-04-29T21:27:38.654Z,6.50
2023-04-29T21:30:06.132Z,6.97
2023-04-29T21:32:33.763Z,5.47
2023-04-29T21:35:00.811Z,5.80
2023-04-29T21:37:29.098Z,6.00
2023-04-29T21:39:57.567Z,5.83
2023-04-29T21:42:26.294Z,6.10
2023-04-29T21:44:58.936Z,5.40
2023-04-29T21:47:27.280Z,6.13
2023-04-29T21:49:54.800Z,6.97
2023-04-29T21:52:21.940Z,7.47
2023-04-29T21:54:48.680Z,6.23
2023-04-29T21:57:15.454Z,7.10
2023-04-29T21:59:42.179Z,7.00
2023-04-29T22:02:22.336Z,6.40
2023-04-29T22:04:50.414Z,6.13
2023-04-29T22:07:20.882Z,6.90
2023-04-29T22:09:49.769Z,6.37
2023-04-29T22:12:20.111Z,6.10
2023-04-29T22:14:47.051Z,6.30
2023-04-29T22:17:14.028Z,7.03
2023-04-29T22:19:41.050Z,7.10
2023-04-29T22:22:07.979Z,5.97
2023-04-29T22:24:34.779Z,7.30
2023-04-29T22:27:03.496Z,7.00
2023-04-29T22:29:30.334Z,7.50
2023-04-29T22:31:57.157Z,7.60
2023-04-29T22:34:23.948Z,8.20
2023-04-29T22:36:50.712Z,9.30
2023-04-29T22:39:17.630Z,7.87
2023-04-29T22:41:44.511Z,7.90
2023-04-29T22:44:11.255Z,7.10
2023-04-29T22:46:37.995Z,7.00
2023-04-29T22:49:04.770Z,7.47
2023-04-29T22:51:32.191Z,7.23
2023-04-29T22:53:59.053Z,7.03
2023-04-29T22:56:28.485Z,7.30
2023-04-29T22:58:55.536Z,7.07
2023-04-29T23:01:22.406Z,6.97
2023-04-29T23:03:49.181Z,7.93
2023-04-29T23:06:16.050Z,7.30
2023-04-29T23:08:44.516Z,7.77
2023-04-29T23:11:12.081Z,7.77
2023-04-29T23:13:39.408Z,9.20
2023-04-29T23:16:07.533Z,8.10
2023-04-29T23:18:36.059Z,7.17
2023-04-29T23:21:03.539Z,7.33
2023-04-29T23:23:30.276Z,9.50
2023-04-29T23:25:57.033Z,8.07
2023-04-29T23:28:24.817Z,8.47
2023-04-29T23:30:51.750Z,8.00
2023-04-29T23:33:18.507Z,7.53
2023-04-29T23:35:52.429Z,7.30
2023-04-29T23:38:19.563Z,6.80
2023-04-29T23:40:46.846Z,6.93
2023-04-29T23:43:15.001Z,7.17
2023-04-29T23:45:45.089Z,7.17
2023-04-29T23:48:13.356Z,6.83
2023-04-29T23:50:40.091Z,6.60
2023-04-29T23:53:06.888Z,7.20
2023-04-29T23:55:34.493Z,6.77
2023-04-29T23:58:01.205Z,6.53
